This is the latest recevied weather packets stored in our database for station/object SQ9RHX-13. If no packets are shown the sender has not sent any weather packets the latest 10 day(s).
| Time | Temp. | Humidity | Pressure | Rain* | Wind** | Luminosity | Snow |
|---|---|---|---|---|---|---|---|
| 1777427704 | 2.78° C | 66% | 1030.2 hPa | 0 mm | - | 0 W/m² | - |
| 1777427402 | 3.33° C | 64% | 1030.1 hPa | 0 mm | - | 0 W/m² | - |
| 1777427103 | 3.33° C | 63% | 1030.2 hPa | 0 mm | - | 0 W/m² | - |
| 1777426803 | 3.89° C | 62% | 1030.2 hPa | 0 mm | - | 0 W/m² | - |
| 1777426506 | 3.89° C | 62% | 1029.9 hPa | 0 mm | - | 0 W/m² | - |
| 1777426203 | 3.89° C | 62% | 1030.1 hPa | 0 mm | - | 0 W/m² | - |
| 1777425906 | 3.89° C | 62% | 1029.9 hPa | 0 mm | - | 0 W/m² | - |
| 1777425603 | 3.89° C | 62% | 1029.8 hPa | 0 mm | - | 0 W/m² | - |
| 1777425303 | 3.89° C | 62% | 1029.9 hPa | 0 mm | - | 0 W/m² | - |
| 1777425002 | 3.89° C | 62% | 1029.9 hPa | 0 mm | - | 0 W/m² | - |
| 1777424703 | 3.89° C | 62% | 1029.8 hPa | 0 mm | - | 0 W/m² | - |
| 1777424403 | 3.89° C | 62% | 1029.7 hPa | 0 mm | - | 0 W/m² | - |
| 1777424103 | 3.89° C | 62% | 1029.7 hPa | 0 mm | - | 0 W/m² | - |
| 1777423803 | 3.89° C | 63% | 1029.6 hPa | 0 mm | - | 0 W/m² | - |
| 1777423503 | 2.78° C | 64% | 1029.7 hPa | 0 mm | - | 0 W/m² | - |
| 1777423205 | 2.78° C | 66% | 1029.7 hPa | 0 mm | - | 0 W/m² | - |
| 1777422905 | 2.22° C | 67% | 1029.6 hPa | 0 mm | - | 0 W/m² | - |
| 1777422602 | 1.67° C | 69% | 1029.5 hPa | 0 mm | - | 0 W/m² | - |
| 1777422303 | 1.11° C | 71% | 1029.5 hPa | 0 mm | - | 0 W/m² | - |
| 1777422003 | 1.11° C | 73% | 1029.5 hPa | 0 mm | - | 0 W/m² | - |
| 1777421703 | 0° C | 77% | 1029.5 hPa | 0 mm | - | 0 W/m² | - |
| 1777421404 | -1.11° C | 81% | 1029.4 hPa | 0 mm | - | 0 W/m² | - |
| 1777421110 | -1.11° C | 82% | 1029.5 hPa | 0 mm | - | 0 W/m² | - |
| 1777420803 | -1.11° C | 81% | 1029.4 hPa | 0 mm | - | 0 W/m² | - |
| 1777420505 | -1.11° C | 80% | 1029.3 hPa | 0 mm | - | 0 W/m² | - |
* Rain latest hour (hover to see other rain measurements)
** Current wind speed in m/s (hover to see current wind gust speed)